createdAt,value
2018-05-02T00:00:57.724Z,12.10
2018-05-02T00:03:26.835Z,12.40
2018-05-02T00:05:54.267Z,12.40
2018-05-02T00:08:22.506Z,12.10
2018-05-02T00:10:49.928Z,12.10
2018-05-02T00:13:17.384Z,12.10
2018-05-02T00:15:44.820Z,12.30
2018-05-02T00:18:13.026Z,12.10
2018-05-02T00:20:40.479Z,12.10
2018-05-02T00:23:07.917Z,11.90
2018-05-02T00:25:36.152Z,11.90
2018-05-02T00:28:03.597Z,11.90
2018-05-02T00:30:31.036Z,11.90
2018-05-02T00:32:58.476Z,11.90
2018-05-02T00:35:26.856Z,12.10
2018-05-02T00:37:54.295Z,12.20
2018-05-02T00:40:23.004Z,12.20
2018-05-02T00:42:50.476Z,12.20
2018-05-02T00:45:17.908Z,12.10
2018-05-02T00:47:45.344Z,12.10
2018-05-02T00:50:13.544Z,11.90
2018-05-02T00:52:40.979Z,11.90
2018-05-02T00:55:09.175Z,11.70
2018-05-02T00:57:36.616Z,11.60
2018-05-02T01:00:04.816Z,11.70
2018-05-02T01:02:32.260Z,11.60
2018-05-02T01:04:59.679Z,11.60
2018-05-02T01:07:27.120Z,11.50
2018-05-02T01:09:54.544Z,11.50
2018-05-02T01:12:21.980Z,11.50
2018-05-02T01:14:50.188Z,11.70
2018-05-02T01:17:17.607Z,11.60
2018-05-02T01:19:45.799Z,11.50
2018-05-02T01:22:13.239Z,11.50
2018-05-02T01:24:41.431Z,11.40
2018-05-02T01:27:09.048Z,11.40
2018-05-02T01:29:36.467Z,11.40
2018-05-02T01:32:03.886Z,11.20
2018-05-02T01:34:32.700Z,11.20
2018-05-02T01:37:00.124Z,11.20
2018-05-02T01:39:27.561Z,11.10
2018-05-02T01:41:54.984Z,11.00
2018-05-02T01:44:22.449Z,11.20
2018-05-02T01:46:49.885Z,11.20
2018-05-02T01:49:24.028Z,11.40
2018-05-02T01:51:51.450Z,11.30
2018-05-02T01:54:18.905Z,11.20
2018-05-02T01:56:46.337Z,11.10
2018-05-02T01:59:13.944Z,11.30
2018-05-02T02:01:41.473Z,11.40
2018-05-02T02:04:09.682Z,11.60
2018-05-02T02:06:37.142Z,11.50
2018-05-02T02:09:05.255Z,11.70
2018-05-02T02:11:32.695Z,11.80
2018-05-02T02:14:00.134Z,11.70
2018-05-02T02:16:27.555Z,11.70
2018-05-02T02:18:55.767Z,11.70
2018-05-02T02:21:23.214Z,11.70
2018-05-02T02:23:50.647Z,11.70
2018-05-02T02:26:18.098Z,11.70
2018-05-02T02:28:46.292Z,11.70
2018-05-02T02:31:13.724Z,11.70
2018-05-02T02:33:41.928Z,11.70
2018-05-02T02:36:09.356Z,11.70
2018-05-02T02:38:37.615Z,11.60
2018-05-02T02:41:05.031Z,11.60
2018-05-02T02:43:32.467Z,11.50
2018-05-02T02:45:59.899Z,11.50
2018-05-02T02:48:28.103Z,11.70
2018-05-02T02:50:55.544Z,11.70
2018-05-02T02:53:23.728Z,11.70
2018-05-02T02:55:51.175Z,11.70
2018-05-02T02:58:19.372Z,11.70
2018-05-02T03:00:46.811Z,11.70
2018-05-02T03:03:15.015Z,11.70
2018-05-02T03:05:42.448Z,11.70
2018-05-02T03:08:09.892Z,11.60
2018-05-02T03:10:38.103Z,11.60
2018-05-02T03:13:05.520Z,11.60
2018-05-02T03:15:33.736Z,11.60
2018-05-02T03:18:01.167Z,11.60
2018-05-02T03:20:29.369Z,11.60
2018-05-02T03:22:56.799Z,11.60
2018-05-02T03:25:25.001Z,11.70
2018-05-02T03:27:52.439Z,11.70
2018-05-02T03:30:20.615Z,11.60
2018-05-02T03:32:48.043Z,11.60
2018-05-02T03:35:15.496Z,11.50
2018-05-02T03:37:42.935Z,11.50
2018-05-02T03:40:10.987Z,11.40
2018-05-02T03:42:38.480Z,11.30
2018-05-02T03:45:05.920Z,11.00
2018-05-02T03:47:33.349Z,10.90
2018-05-02T03:50:00.786Z,10.70
2018-05-02T03:52:28.211Z,10.50
2018-05-02T03:54:55.655Z,10.50
2018-05-02T03:57:23.088Z,10.40
2018-05-02T04:00:02.152Z,10.40
2018-05-02T04:02:41.256Z,10.10
2018-05-02T04:05:20.517Z,10.00
2018-05-02T04:07:48.756Z,9.90
2018-05-02T04:10:16.190Z,10.10
2018-05-02T04:12:43.623Z,10.00
2018-05-02T04:15:11.054Z,10.00
2018-05-02T04:17:38.483Z,10.20
2018-05-02T04:20:05.922Z,10.30
2018-05-02T04:22:33.342Z,10.40
2018-05-02T04:25:00.772Z,10.40
2018-05-02T04:27:28.205Z,10.50
2018-05-02T04:29:55.644Z,10.40
2018-05-02T04:32:23.076Z,10.40
2018-05-02T04:34:50.509Z,10.50
2018-05-02T04:37:17.933Z,10.60
2018-05-02T04:39:45.363Z,10.60
2018-05-02T04:42:13.568Z,10.70
2018-05-02T04:44:40.991Z,10.70
2018-05-02T04:47:09.181Z,10.70
2018-05-02T04:49:36.618Z,10.70
2018-05-02T04:52:04.812Z,10.80
2018-05-02T04:54:32.241Z,10.80
2018-05-02T04:57:00.452Z,10.90
2018-05-02T04:59:27.966Z,10.90
2018-05-02T05:01:56.090Z,11.20
2018-05-02T05:04:23.583Z,11.20
2018-05-02T05:06:51.017Z,11.40
2018-05-02T05:09:18.463Z,11.30
2018-05-02T05:11:45.882Z,11.20
2018-05-02T05:14:14.080Z,11.50
2018-05-02T05:16:41.507Z,11.40
2018-05-02T05:19:08.931Z,11.50
2018-05-02T05:21:36.365Z,11.60
2018-05-02T05:24:03.788Z,11.80
2018-05-02T05:26:32.007Z,11.80
2018-05-02T05:28:59.422Z,11.80
2018-05-02T05:31:28.228Z,12.00
2018-05-02T05:33:55.719Z,12.00
2018-05-02T05:36:23.142Z,12.20
2018-05-02T05:38:50.570Z,12.40
2018-05-02T05:41:18.003Z,12.40
2018-05-02T05:43:45.436Z,12.20
2018-05-02T05:46:12.871Z,12.10
2018-05-02T05:48:40.299Z,12.20
2018-05-02T05:51:07.732Z,12.40
2018-05-02T05:53:35.168Z,12.40
2018-05-02T05:56:02.600Z,12.40
2018-05-02T05:58:30.028Z,12.60
2018-05-02T06:00:57.473Z,12.80
2018-05-02T06:03:24.899Z,12.90
2018-05-02T06:05:52.345Z,13.00
2018-05-02T06:08:19.768Z,12.90
2018-05-02T06:10:47.981Z,13.20
2018-05-02T06:13:15.431Z,13.20
2018-05-02T06:15:42.866Z,13.20
2018-05-02T06:18:11.052Z,13.70
2018-05-02T06:20:38.487Z,13.70
2018-05-02T06:23:06.680Z,14.20
2018-05-02T06:25:34.121Z,14.20
2018-05-02T06:28:01.607Z,15.30
2018-05-02T06:30:29.029Z,16.30
2018-05-02T06:32:56.486Z,17.90
2018-05-02T06:35:23.916Z,19.00
2018-05-02T06:37:51.445Z,19.90
2018-05-02T06:40:18.805Z,20.70
2018-05-02T06:42:46.246Z,21.20
2018-05-02T06:45:13.668Z,21.30
2018-05-02T06:47:41.110Z,21.20
2018-05-02T06:50:08.556Z,20.70
2018-05-02T06:52:35.988Z,21.10
2018-05-02T06:55:03.417Z,21.20
2018-05-02T06:57:31.624Z,22.30
2018-05-02T06:59:59.068Z,22.20
2018-05-02T07:02:26.496Z,23.00
2018-05-02T07:04:54.728Z,23.50
2018-05-02T07:07:22.196Z,23.40
2018-05-02T07:09:49.616Z,23.50
2018-05-02T07:12:17.056Z,22.40
2018-05-02T07:14:45.245Z,21.30
2018-05-02T07:17:12.688Z,21.30
2018-05-02T07:19:40.871Z,19.10
2018-05-02T07:22:08.308Z,19.10
2018-05-02T07:24:36.503Z,18.60
2018-05-02T07:27:03.930Z,18.60
2018-05-02T07:29:31.364Z,18.10
2018-05-02T07:31:58.799Z,17.80
2018-05-02T07:34:26.280Z,17.70
2018-05-02T07:36:53.728Z,17.80
2018-05-02T07:39:21.189Z,17.70
2018-05-02T07:41:48.633Z,18.10
2018-05-02T07:44:16.066Z,18.30
2018-05-02T07:46:43.564Z,18.50
2018-05-02T07:49:11.008Z,19.40
2018-05-02T07:51:38.439Z,20.90
2018-05-02T07:54:05.928Z,22.20
2018-05-02T07:56:33.390Z,23.20
2018-05-02T07:59:00.792Z,24.10
2018-05-02T08:01:28.995Z,24.70
2018-05-02T08:03:56.432Z,24.70
2018-05-02T08:06:24.648Z,25.20
2018-05-02T08:08:52.080Z,25.10
2018-05-02T08:11:19.518Z,24.70
2018-05-02T08:13:47.726Z,24.80
2018-05-02T08:16:15.153Z,24.80
2018-05-02T08:18:43.343Z,24.50
2018-05-02T08:21:10.786Z,24.50
2018-05-02T08:23:38.971Z,22.90
2018-05-02T08:26:06.398Z,22.90
2018-05-02T08:28:34.788Z,21.10
2018-05-02T08:31:02.985Z,20.50
2018-05-02T08:33:31.598Z,20.50
2018-05-02T08:35:59.027Z,20.50
2018-05-02T08:38:26.459Z,20.20
2018-05-02T08:40:54.691Z,19.20
2018-05-02T08:43:22.143Z,19.10
2018-05-02T08:45:49.568Z,19.50
2018-05-02T08:48:16.996Z,19.30
2018-05-02T08:50:44.429Z,19.80
2018-05-02T08:53:11.883Z,19.20
2018-05-02T08:55:39.324Z,20.00
2018-05-02T08:58:06.751Z,21.10
2018-05-02T09:00:34.949Z,22.00
2018-05-02T09:03:02.393Z,21.90
2018-05-02T09:05:29.827Z,22.10
2018-05-02T09:07:58.036Z,24.40
2018-05-02T09:10:25.468Z,24.40
2018-05-02T09:12:53.695Z,25.60
2018-05-02T09:15:21.148Z,25.50
2018-05-02T09:17:48.604Z,25.70
2018-05-02T09:20:16.072Z,25.90
2018-05-02T09:22:43.505Z,25.90
2018-05-02T09:25:10.940Z,26.00
2018-05-02T09:27:38.768Z,26.80
2018-05-02T09:30:06.208Z,27.90
2018-05-02T09:32:33.645Z,27.80
2018-05-02T09:35:01.071Z,29.90
2018-05-02T09:37:28.511Z,30.20
2018-05-02T09:39:56.703Z,30.60
2018-05-02T09:42:24.908Z,29.40
2018-05-02T09:44:52.341Z,29.30
2018-05-02T09:47:20.545Z,28.20
2018-05-02T09:49:48.979Z,28.10
2018-05-02T09:52:17.920Z,27.90
2018-05-02T09:54:45.355Z,27.90
2018-05-02T09:57:12.779Z,27.60
2018-05-02T09:59:40.207Z,27.80
2018-05-02T10:02:07.652Z,28.80
2018-05-02T10:04:35.200Z,28.90
2018-05-02T10:07:02.516Z,30.10
2018-05-02T10:09:30.344Z,30.40
2018-05-02T10:11:57.781Z,29.50
2018-05-02T10:14:25.233Z,29.70
2018-05-02T10:16:52.649Z,31.80
2018-05-02T10:19:20.851Z,30.90
2018-05-02T10:21:48.280Z,29.00
2018-05-02T10:24:16.482Z,30.60
2018-05-02T10:26:43.911Z,30.60
2018-05-02T10:29:12.112Z,31.20
2018-05-02T10:31:39.571Z,31.20
2018-05-02T10:34:07.013Z,32.00
2018-05-02T10:36:35.199Z,31.40
2018-05-02T10:39:04.139Z,31.80
2018-05-02T10:41:31.570Z,31.90
2018-05-02T10:43:59.012Z,31.10
2018-05-02T10:46:26.632Z,30.20
2018-05-02T10:48:54.066Z,29.40
2018-05-02T10:51:22.634Z,30.90
2018-05-02T10:53:51.216Z,31.30
2018-05-02T10:56:18.641Z,31.50
2018-05-02T10:58:46.835Z,31.70
2018-05-02T11:01:15.038Z,31.70
2018-05-02T11:03:43.232Z,30.60
2018-05-02T11:06:10.691Z,30.60
2018-05-02T11:08:38.128Z,30.10
2018-05-02T11:13:34.377Z,32.30
2018-05-02T11:16:01.829Z,32.00
2018-05-02T11:18:29.257Z,32.00
2018-05-02T11:20:57.448Z,29.70
2018-05-02T11:23:24.891Z,29.70
2018-05-02T11:25:52.328Z,30.10
2018-05-02T11:28:20.605Z,30.80
2018-05-02T11:30:48.040Z,30.80
2018-05-02T11:33:15.480Z,31.10
2018-05-02T11:35:42.923Z,32.00
2018-05-02T11:38:10.358Z,32.70
2018-05-02T11:40:37.800Z,33.20
2018-05-02T11:43:06.001Z,32.20
2018-05-02T11:45:33.446Z,32.10
2018-05-02T11:48:00.884Z,31.70
2018-05-02T11:50:29.755Z,33.00
2018-05-02T11:52:57.179Z,33.00
2018-05-02T11:55:25.387Z,33.20
2018-05-02T11:57:52.928Z,33.20
2018-05-02T12:00:20.288Z,32.80
2018-05-02T12:02:48.484Z,32.90
2018-05-02T12:05:15.906Z,33.10
2018-05-02T12:07:43.339Z,33.30
2018-05-02T12:10:10.773Z,33.10
2018-05-02T12:12:38.984Z,32.30
2018-05-02T12:15:06.415Z,32.30
2018-05-02T12:17:33.840Z,31.40
2018-05-02T12:20:01.290Z,31.10
2018-05-02T12:22:28.718Z,31.30
2018-05-02T12:24:56.152Z,32.00
2018-05-02T12:27:23.584Z,32.00
2018-05-02T12:29:51.783Z,31.30
2018-05-02T12:32:19.213Z,31.30
2018-05-02T12:34:47.429Z,31.80
2018-05-02T12:37:14.851Z,31.70
2018-05-02T12:39:43.054Z,32.90
2018-05-02T12:42:10.488Z,32.90
2018-05-02T12:44:38.736Z,32.60
2018-05-02T12:47:06.119Z,31.50
2018-05-02T12:49:34.361Z,30.70
2018-05-02T12:52:01.805Z,30.30
2018-05-02T12:54:29.264Z,30.30
2018-05-02T12:56:56.725Z,30.10
2018-05-02T12:59:24.168Z,29.60
2018-05-02T13:01:51.603Z,29.70
2018-05-02T13:04:19.039Z,28.80
2018-05-02T13:06:47.244Z,30.60
2018-05-02T13:09:14.680Z,30.60
2018-05-02T13:11:42.110Z,30.80
2018-05-02T13:14:09.536Z,30.70
2018-05-02T13:16:36.979Z,30.00
2018-05-02T13:19:04.407Z,30.00
2018-05-02T13:21:31.860Z,30.00
2018-05-02T13:24:00.058Z,29.80
2018-05-02T13:26:28.404Z,29.80
2018-05-02T13:28:56.600Z,30.60
2018-05-02T13:31:24.032Z,30.50
2018-05-02T13:33:52.251Z,29.20
2018-05-02T13:36:19.671Z,29.20
2018-05-02T13:38:47.871Z,28.70
2018-05-02T13:41:15.324Z,27.70
2018-05-02T13:43:42.738Z,27.70
2018-05-02T13:46:10.196Z,27.50
2018-05-02T13:48:37.622Z,25.80
2018-05-02T13:51:05.050Z,26.20
2018-05-02T13:53:32.878Z,26.60
2018-05-02T13:56:00.319Z,27.10
2018-05-02T13:58:30.001Z,27.30
2018-05-02T14:00:57.459Z,26.80
2018-05-02T14:03:24.871Z,26.70
2018-05-02T14:05:52.298Z,26.40
2018-05-02T14:08:19.786Z,26.20
2018-05-02T14:10:47.176Z,26.10
2018-05-02T14:13:14.609Z,25.70
2018-05-02T14:15:42.804Z,25.60
2018-05-02T14:18:10.256Z,25.60
2018-05-02T14:20:38.436Z,25.20
2018-05-02T14:23:05.855Z,25.20
2018-05-02T14:25:33.381Z,26.20
2018-05-02T14:28:02.183Z,25.80
2018-05-02T14:30:29.716Z,25.80
2018-05-02T14:32:57.540Z,24.80
2018-05-02T14:35:25.056Z,24.80
2018-05-02T14:37:52.491Z,24.80
2018-05-02T14:40:19.976Z,24.80
2018-05-02T14:42:47.412Z,25.10
2018-05-02T14:45:14.880Z,25.20
2018-05-02T14:47:42.291Z,25.50
2018-05-02T14:50:10.175Z,25.80
2018-05-02T14:52:38.404Z,26.00
2018-05-02T14:55:06.340Z,26.00
2018-05-02T14:57:33.763Z,25.30
2018-05-02T15:00:01.956Z,25.10
2018-05-02T15:02:30.535Z,24.50
2018-05-02T15:04:57.959Z,24.80
2018-05-02T15:07:26.158Z,25.20
2018-05-02T15:09:54.770Z,24.70
2018-05-02T15:12:22.186Z,24.60
2018-05-02T15:14:50.387Z,24.40
2018-05-02T15:17:17.823Z,24.40
2018-05-02T15:19:46.777Z,24.50
2018-05-02T15:22:14.220Z,24.50
2018-05-02T15:24:41.725Z,24.50
2018-05-02T15:27:09.100Z,26.40
2018-05-02T15:29:37.287Z,24.20
2018-05-02T15:32:04.723Z,24.20
2018-05-02T15:34:32.932Z,23.70
2018-05-02T15:37:00.370Z,23.70
2018-05-02T15:39:27.809Z,23.80
2018-05-02T15:41:55.235Z,24.00
2018-05-02T15:44:22.739Z,23.70
2018-05-02T15:46:50.941Z,23.10
2018-05-02T15:49:18.442Z,23.10
2018-05-02T15:51:46.568Z,22.20
2018-05-02T15:54:14.010Z,22.20
2018-05-02T15:56:42.962Z,22.90
2018-05-02T15:59:10.433Z,22.80
2018-05-02T16:04:06.781Z,23.00
2018-05-02T16:06:34.475Z,23.40
2018-05-02T16:09:01.916Z,23.40
2018-05-02T16:11:30.057Z,22.90
2018-05-02T16:13:57.493Z,22.80
2018-05-02T16:16:24.957Z,22.80
2018-05-02T16:18:52.371Z,22.60
2018-05-02T16:21:19.804Z,22.70
2018-05-02T16:23:47.311Z,22.30
2018-05-02T16:26:14.726Z,22.80
2018-05-02T16:28:42.920Z,22.70
2018-05-02T16:31:10.361Z,22.70
2018-05-02T16:33:37.783Z,22.40
2018-05-02T16:36:05.221Z,22.40
2018-05-02T16:38:32.656Z,22.60
2018-05-02T16:41:00.100Z,22.80
2018-05-02T16:43:28.303Z,22.40
2018-05-02T16:45:55.723Z,22.40
2018-05-02T16:48:23.932Z,22.50
2018-05-02T16:50:52.955Z,22.60
2018-05-02T16:53:21.143Z,22.40
2018-05-02T17:03:15.715Z,22.80
2018-05-02T17:05:43.903Z,22.80
2018-05-02T17:08:12.109Z,22.80
2018-05-02T17:10:39.929Z,22.50
2018-05-02T17:13:08.119Z,22.60
2018-05-02T17:15:35.566Z,22.60
2018-05-02T17:18:02.983Z,22.20
2018-05-02T17:20:31.201Z,22.30
2018-05-02T17:22:59.037Z,22.40
2018-05-02T17:25:26.468Z,21.80
2018-05-02T17:27:53.892Z,21.60
2018-05-02T17:30:22.828Z,21.60
2018-05-02T17:32:51.069Z,21.90
2018-05-02T17:35:20.521Z,21.60
2018-05-02T17:37:48.728Z,21.60
2018-05-02T17:40:16.556Z,21.40
2018-05-02T17:45:13.160Z,21.70
2018-05-02T17:50:09.380Z,22.10
2018-05-02T17:52:37.208Z,21.90
2018-05-02T17:55:05.032Z,21.90
2018-05-02T17:57:32.476Z,21.80
2018-05-02T18:00:00.684Z,21.50
2018-05-02T18:02:28.496Z,21.40
2018-05-02T18:04:57.063Z,21.20
2018-05-02T18:07:24.486Z,21.40
2018-05-02T18:09:52.315Z,21.20
2018-05-02T18:12:20.516Z,21.00
2018-05-02T18:17:17.520Z,21.10
2018-05-02T18:19:46.320Z,21.00
2018-05-02T18:22:14.905Z,21.30
2018-05-02T18:27:11.176Z,21.30
2018-05-02T18:32:08.175Z,21.10
2018-05-02T18:37:05.921Z,21.50
2018-05-02T18:42:02.905Z,21.40
2018-05-02T18:44:30.394Z,21.40
2018-05-02T18:46:58.580Z,21.50
2018-05-02T18:49:26.784Z,21.30
2018-05-02T18:54:23.844Z,21.30
2018-05-02T18:59:20.564Z,21.10
2018-05-02T19:01:47.986Z,21.00
2018-05-02T19:04:16.191Z,21.00
2018-05-02T19:06:43.623Z,21.00
2018-05-02T19:09:11.840Z,20.90
2018-05-02T19:11:39.268Z,20.90
2018-05-02T19:14:06.706Z,20.80
2018-05-02T19:19:37.319Z,20.80
2018-05-02T19:22:04.751Z,21.00
2018-05-02T19:24:38.535Z,20.70
2018-05-02T19:27:05.962Z,20.60
2018-05-02T19:29:34.267Z,20.70
2018-05-02T19:32:07.246Z,20.60
2018-05-02T19:34:34.679Z,20.60
2018-05-02T19:37:02.887Z,20.50
2018-05-02T19:39:45.369Z,20.50
2018-05-02T19:42:19.268Z,20.30
2018-05-02T19:44:47.471Z,20.20
2018-05-02T19:47:15.024Z,20.20
2018-05-02T19:49:42.480Z,20.20
2018-05-02T19:52:27.733Z,19.80
2018-05-02T19:54:55.931Z,19.90
2018-05-02T19:57:23.369Z,19.90
2018-05-02T19:59:51.597Z,19.90
2018-05-02T20:02:24.623Z,19.90
2018-05-02T20:04:52.134Z,20.00
2018-05-02T20:07:35.362Z,19.90
2018-05-02T20:10:09.383Z,19.80
2018-05-02T20:12:43.135Z,19.80
2018-05-02T20:17:40.162Z,19.80
2018-05-02T20:20:08.364Z,19.60
2018-05-02T20:22:36.762Z,19.40
2018-05-02T20:35:00.451Z,19.40
2018-05-02T20:37:27.884Z,19.40
2018-05-02T20:39:56.097Z,19.40
2018-05-02T20:42:24.282Z,19.30
2018-05-02T20:44:51.735Z,19.30
2018-05-02T20:47:19.155Z,19.30
2018-05-02T20:49:46.605Z,19.20
2018-05-02T20:52:14.093Z,19.30
2018-05-02T20:54:42.242Z,18.90
2018-05-02T20:57:09.663Z,18.90
2018-05-02T20:59:37.867Z,18.50
2018-05-02T21:02:05.308Z,18.40
2018-05-02T21:04:33.533Z,18.40
2018-05-02T21:07:00.969Z,18.40
2018-05-02T21:09:28.402Z,18.30
2018-05-02T21:11:55.864Z,18.40
2018-05-02T21:14:23.358Z,18.40
2018-05-02T21:16:50.760Z,18.10
2018-05-02T21:19:18.971Z,18.60
2018-05-02T21:21:46.399Z,18.60
2018-05-02T21:24:14.642Z,18.60
2018-05-02T21:26:42.030Z,16.10
2018-05-02T21:29:10.240Z,18.70
2018-05-02T21:31:37.688Z,18.70
2018-05-02T21:34:05.109Z,18.10
2018-05-02T21:36:33.316Z,18.20
2018-05-02T21:39:00.748Z,18.20
2018-05-02T21:41:28.952Z,18.50
2018-05-02T21:43:56.390Z,18.50
2018-05-02T21:46:23.824Z,18.30
2018-05-02T21:48:51.259Z,18.20
2018-05-02T21:51:18.699Z,18.20
2018-05-02T21:53:46.145Z,18.30
2018-05-02T21:56:13.578Z,18.50
2018-05-02T21:58:41.772Z,18.30
2018-05-02T22:01:09.215Z,18.30
2018-05-02T22:03:36.651Z,18.30
2018-05-02T22:06:04.844Z,18.10
2018-05-02T22:08:32.276Z,18.10
2018-05-02T22:10:59.708Z,18.30
2018-05-02T22:13:27.909Z,18.10
2018-05-02T22:15:55.372Z,18.10
2018-05-02T22:18:23.575Z,18.20
2018-05-02T22:20:51.028Z,18.10
2018-05-02T22:23:18.460Z,18.00
2018-05-02T22:25:46.678Z,18.00
2018-05-02T22:28:14.966Z,17.70
2018-05-02T22:30:42.391Z,17.70
2018-05-02T22:33:09.820Z,17.90
2018-05-02T22:35:37.256Z,18.10
2018-05-02T22:38:04.696Z,18.20
2018-05-02T22:40:32.123Z,18.30
2018-05-02T22:42:59.575Z,18.40
2018-05-02T22:45:27.781Z,18.30
2018-05-02T22:47:55.204Z,18.30
2018-05-02T22:50:23.408Z,18.10
2018-05-02T22:52:50.848Z,18.10
2018-05-02T22:55:18.288Z,18.30
2018-05-02T22:57:46.490Z,18.20
2018-05-02T23:00:13.920Z,18.20
2018-05-02T23:02:42.201Z,18.20
2018-05-02T23:05:09.874Z,18.20
2018-05-02T23:07:37.313Z,18.30
2018-05-02T23:10:05.520Z,18.40
2018-05-02T23:12:32.955Z,18.30
2018-05-02T23:15:01.141Z,18.50
2018-05-02T23:17:28.589Z,18.40
2018-05-02T23:19:56.483Z,18.40
2018-05-02T23:22:24.676Z,18.10
2018-05-02T23:24:52.115Z,18.20
2018-05-02T23:27:19.546Z,18.20
2018-05-02T23:29:46.990Z,18.10
2018-05-02T23:32:15.211Z,18.10
2018-05-02T23:34:42.651Z,18.10
2018-05-02T23:37:10.966Z,18.00
2018-05-02T23:39:38.396Z,18.00
2018-05-02T23:42:05.831Z,18.10
2018-05-02T23:44:33.271Z,18.20
2018-05-02T23:47:01.485Z,18.20
2018-05-02T23:49:28.903Z,18.20
2018-05-02T23:51:57.110Z,18.10
2018-05-02T23:54:24.603Z,18.00
2018-05-02T23:56:52.032Z,18.00
2018-05-02T23:59:19.448Z,18.00
